sensor_id;sensor_type;location;lat;lon;timestamp;temperature;humidity
23685;DHT22;12020;51.384;6.908;2023-04-24T00:01:57;12.20;99.90
23685;DHT22;12020;51.384;6.908;2023-04-24T00:04:24;12.10;99.90
23685;DHT22;12020;51.384;6.908;2023-04-24T00:06:52;12.10;99.90
23685;DHT22;12020;51.384;6.908;2023-04-24T00:09:20;12.10;99.90
23685;DHT22;12020;51.384;6.908;2023-04-24T00:11:46;12.10;99.90
23685;DHT22;12020;51.384;6.908;2023-04-24T00:14:13;12.00;99.90
23685;DHT22;12020;51.384;6.908;2023-04-24T00:16:39;12.00;99.90
23685;DHT22;12020;51.384;6.908;2023-04-24T00:19:05;12.00;99.90
23685;DHT22;12020;51.384;6.908;2023-04-24T00:21:33;12.00;99.90
23685;DHT22;12020;51.384;6.908;2023-04-24T00:23:59;12.00;99.90
23685;DHT22;12020;51.384;6.908;2023-04-24T00:26:25;12.00;99.90
23685;DHT22;12020;51.384;6.908;2023-04-24T00:28:50;12.00;99.90
23685;DHT22;12020;51.384;6.908;2023-04-24T00:31:16;12.00;99.90
23685;DHT22;12020;51.384;6.908;2023-04-24T00:33:43;12.00;99.90
23685;DHT22;12020;51.384;6.908;2023-04-24T00:36:08;12.00;99.90
23685;DHT22;12020;51.384;6.908;2023-04-24T00:38:34;12.00;99.90
23685;DHT22;12020;51.384;6.908;2023-04-24T00:41:01;11.90;99.90
23685;DHT22;12020;51.384;6.908;2023-04-24T00:43:28;11.90;99.90
23685;DHT22;12020;51.384;6.908;2023-04-24T00:45:58;11.90;99.90
23685;DHT22;12020;51.384;6.908;2023-04-24T00:48:27;11.90;99.90
23685;DHT22;12020;51.384;6.908;2023-04-24T00:50:53;11.80;99.90
23685;DHT22;12020;51.384;6.908;2023-04-24T00:53:19;11.70;99.90
23685;DHT22;12020;51.384;6.908;2023-04-24T00:55:45;11.70;99.90
23685;DHT22;12020;51.384;6.908;2023-04-24T00:58:12;11.60;99.90
23685;DHT22;12020;51.384;6.908;2023-04-24T01:00:38;11.60;99.90
23685;DHT22;12020;51.384;6.908;2023-04-24T01:03:06;11.60;99.90
23685;DHT22;12020;51.384;6.908;2023-04-24T01:05:33;11.60;99.90
23685;DHT22;12020;51.384;6.908;2023-04-24T01:07:59;11.60;99.90
23685;DHT22;12020;51.384;6.908;2023-04-24T01:10:27;11.50;99.90
23685;DHT22;12020;51.384;6.908;2023-04-24T01:12:55;11.50;99.90
23685;DHT22;12020;51.384;6.908;2023-04-24T01:15:22;11.50;99.90
23685;DHT22;12020;51.384;6.908;2023-04-24T01:17:48;11.50;99.90
23685;DHT22;12020;51.384;6.908;2023-04-24T01:20:14;11.50;99.90
23685;DHT22;12020;51.384;6.908;2023-04-24T01:22:41;11.50;99.90
23685;DHT22;12020;51.384;6.908;2023-04-24T01:25:07;11.40;99.90
23685;DHT22;12020;51.384;6.908;2023-04-24T01:27:34;11.40;99.90
23685;DHT22;12020;51.384;6.908;2023-04-24T01:30:01;11.30;99.90
23685;DHT22;12020;51.384;6.908;2023-04-24T01:32:28;11.30;99.90
23685;DHT22;12020;51.384;6.908;2023-04-24T01:34:54;11.20;99.90
23685;DHT22;12020;51.384;6.908;2023-04-24T01:37:21;11.20;99.90
23685;DHT22;12020;51.384;6.908;2023-04-24T01:39:46;11.20;99.90
23685;DHT22;12020;51.384;6.908;2023-04-24T01:42:13;11.20;99.90
23685;DHT22;12020;51.384;6.908;2023-04-24T01:44:40;11.20;99.90
23685;DHT22;12020;51.384;6.908;2023-04-24T01:47:07;11.20;99.90
23685;DHT22;12020;51.384;6.908;2023-04-24T01:49:33;11.10;99.90
23685;DHT22;12020;51.384;6.908;2023-04-24T01:51:58;11.10;99.90
23685;DHT22;12020;51.384;6.908;2023-04-24T01:54:25;11.00;99.90
23685;DHT22;12020;51.384;6.908;2023-04-24T01:56:51;11.00;99.90
23685;DHT22;12020;51.384;6.908;2023-04-24T01:59:17;10.90;99.90
23685;DHT22;12020;51.384;6.908;2023-04-24T02:01:44;10.90;99.90
23685;DHT22;12020;51.384;6.908;2023-04-24T02:04:19;10.90;99.90
23685;DHT22;12020;51.384;6.908;2023-04-24T02:06:44;10.90;99.90
23685;DHT22;12020;51.384;6.908;2023-04-24T02:09:11;10.80;99.90
23685;DHT22;12020;51.384;6.908;2023-04-24T02:11:37;10.80;99.90
23685;DHT22;12020;51.384;6.908;2023-04-24T02:14:03;10.80;99.90
23685;DHT22;12020;51.384;6.908;2023-04-24T02:16:30;10.80;99.90
23685;DHT22;12020;51.384;6.908;2023-04-24T02:18:58;10.70;99.90
23685;DHT22;12020;51.384;6.908;2023-04-24T02:21:24;10.70;99.90
23685;DHT22;12020;51.384;6.908;2023-04-24T02:23:51;10.70;99.90
23685;DHT22;12020;51.384;6.908;2023-04-24T02:26:17;10.70;99.90
23685;DHT22;12020;51.384;6.908;2023-04-24T02:28:43;10.70;99.90
23685;DHT22;12020;51.384;6.908;2023-04-24T02:31:09;10.70;99.90
23685;DHT22;12020;51.384;6.908;2023-04-24T02:33:35;10.70;99.90
23685;DHT22;12020;51.384;6.908;2023-04-24T02:36:02;10.70;99.90
23685;DHT22;12020;51.384;6.908;2023-04-24T02:38:29;10.70;99.90
23685;DHT22;12020;51.384;6.908;2023-04-24T02:40:55;10.70;99.90
23685;DHT22;12020;51.384;6.908;2023-04-24T02:43:22;10.70;99.90
23685;DHT22;12020;51.384;6.908;2023-04-24T02:45:48;10.70;99.90
23685;DHT22;12020;51.384;6.908;2023-04-24T02:48:14;10.60;99.90
23685;DHT22;12020;51.384;6.908;2023-04-24T02:50:40;10.70;99.90
23685;DHT22;12020;51.384;6.908;2023-04-24T02:53:06;10.70;99.90
23685;DHT22;12020;51.384;6.908;2023-04-24T02:55:32;10.70;99.90
23685;DHT22;12020;51.384;6.908;2023-04-24T02:57:58;10.70;99.90
23685;DHT22;12020;51.384;6.908;2023-04-24T03:00:25;10.70;99.90
23685;DHT22;12020;51.384;6.908;2023-04-24T03:02:51;10.70;99.90
23685;DHT22;12020;51.384;6.908;2023-04-24T03:05:17;10.70;99.90
23685;DHT22;12020;51.384;6.908;2023-04-24T03:07:43;10.70;99.90
23685;DHT22;12020;51.384;6.908;2023-04-24T03:10:11;10.70;99.90
23685;DHT22;12020;51.384;6.908;2023-04-24T03:12:37;10.70;99.90
23685;DHT22;12020;51.384;6.908;2023-04-24T03:15:04;10.70;99.90
23685;DHT22;12020;51.384;6.908;2023-04-24T03:17:31;10.70;99.90
23685;DHT22;12020;51.384;6.908;2023-04-24T03:19:57;10.70;99.90
23685;DHT22;12020;51.384;6.908;2023-04-24T03:22:23;10.70;99.90
23685;DHT22;12020;51.384;6.908;2023-04-24T03:24:49;10.60;99.90
23685;DHT22;12020;51.384;6.908;2023-04-24T03:27:15;10.60;99.90
23685;DHT22;12020;51.384;6.908;2023-04-24T03:29:41;10.60;99.90
23685;DHT22;12020;51.384;6.908;2023-04-24T03:32:10;10.60;99.90
23685;DHT22;12020;51.384;6.908;2023-04-24T03:34:36;10.60;99.90
23685;DHT22;12020;51.384;6.908;2023-04-24T03:37:02;10.60;99.90
23685;DHT22;12020;51.384;6.908;2023-04-24T03:39:27;10.70;99.90
23685;DHT22;12020;51.384;6.908;2023-04-24T03:41:53;10.60;99.90
23685;DHT22;12020;51.384;6.908;2023-04-24T03:44:19;10.60;99.90
23685;DHT22;12020;51.384;6.908;2023-04-24T03:46:45;10.70;99.90
23685;DHT22;12020;51.384;6.908;2023-04-24T03:49:12;10.70;99.90
23685;DHT22;12020;51.384;6.908;2023-04-24T03:51:39;10.60;99.90
23685;DHT22;12020;51.384;6.908;2023-04-24T03:54:05;10.60;99.90
23685;DHT22;12020;51.384;6.908;2023-04-24T03:56:31;10.60;99.90
23685;DHT22;12020;51.384;6.908;2023-04-24T03:58:57;10.60;99.90
23685;DHT22;12020;51.384;6.908;2023-04-24T04:01:23;10.60;99.90
23685;DHT22;12020;51.384;6.908;2023-04-24T04:03:50;10.60;99.90
23685;DHT22;12020;51.384;6.908;2023-04-24T04:06:17;10.70;99.90
23685;DHT22;12020;51.384;6.908;2023-04-24T04:08:45;10.70;99.90
23685;DHT22;12020;51.384;6.908;2023-04-24T04:11:11;10.60;99.90
23685;DHT22;12020;51.384;6.908;2023-04-24T04:13:37;10.60;99.90
23685;DHT22;12020;51.384;6.908;2023-04-24T04:16:02;10.60;99.90
23685;DHT22;12020;51.384;6.908;2023-04-24T04:18:28;10.60;99.90
23685;DHT22;12020;51.384;6.908;2023-04-24T04:20:54;10.60;99.90
23685;DHT22;12020;51.384;6.908;2023-04-24T04:23:20;10.60;99.90
23685;DHT22;12020;51.384;6.908;2023-04-24T04:25:47;10.60;99.90
23685;DHT22;12020;51.384;6.908;2023-04-24T04:28:13;10.60;99.90
23685;DHT22;12020;51.384;6.908;2023-04-24T04:30:47;10.60;99.90
23685;DHT22;12020;51.384;6.908;2023-04-24T04:33:13;10.60;99.90
23685;DHT22;12020;51.384;6.908;2023-04-24T04:35:40;10.60;99.90
23685;DHT22;12020;51.384;6.908;2023-04-24T04:38:06;10.60;99.90
23685;DHT22;12020;51.384;6.908;2023-04-24T04:40:33;10.60;99.90
23685;DHT22;12020;51.384;6.908;2023-04-24T04:43:00;10.60;99.90
23685;DHT22;12020;51.384;6.908;2023-04-24T04:45:26;10.50;99.90
23685;DHT22;12020;51.384;6.908;2023-04-24T04:47:52;10.50;99.90
23685;DHT22;12020;51.384;6.908;2023-04-24T04:50:18;10.50;99.90
23685;DHT22;12020;51.384;6.908;2023-04-24T04:52:46;10.50;99.90
23685;DHT22;12020;51.384;6.908;2023-04-24T04:55:12;10.60;99.90
23685;DHT22;12020;51.384;6.908;2023-04-24T04:57:39;10.60;99.90
23685;DHT22;12020;51.384;6.908;2023-04-24T05:00:05;10.50;99.90
23685;DHT22;12020;51.384;6.908;2023-04-24T05:02:35;10.50;99.90
23685;DHT22;12020;51.384;6.908;2023-04-24T05:05:03;10.50;99.90
23685;DHT22;12020;51.384;6.908;2023-04-24T05:07:29;10.50;99.90
23685;DHT22;12020;51.384;6.908;2023-04-24T05:09:55;10.50;99.90
23685;DHT22;12020;51.384;6.908;2023-04-24T05:12:21;10.50;99.90
23685;DHT22;12020;51.384;6.908;2023-04-24T05:14:47;10.50;99.90
23685;DHT22;12020;51.384;6.908;2023-04-24T05:17:13;10.50;99.90
23685;DHT22;12020;51.384;6.908;2023-04-24T05:19:42;10.50;99.90
23685;DHT22;12020;51.384;6.908;2023-04-24T05:22:08;10.50;99.90
23685;DHT22;12020;51.384;6.908;2023-04-24T05:24:36;10.40;99.90
23685;DHT22;12020;51.384;6.908;2023-04-24T05:27:03;10.40;99.90
23685;DHT22;12020;51.384;6.908;2023-04-24T05:29:30;10.30;99.90
23685;DHT22;12020;51.384;6.908;2023-04-24T05:31:58;10.30;99.90
23685;DHT22;12020;51.384;6.908;2023-04-24T05:34:27;10.30;99.90
23685;DHT22;12020;51.384;6.908;2023-04-24T05:36:53;10.20;99.90
23685;DHT22;12020;51.384;6.908;2023-04-24T05:39:20;10.20;99.90
23685;DHT22;12020;51.384;6.908;2023-04-24T05:41:46;10.20;99.90
23685;DHT22;12020;51.384;6.908;2023-04-24T05:44:12;10.20;99.90
23685;DHT22;12020;51.384;6.908;2023-04-24T05:46:38;10.10;99.90
23685;DHT22;12020;51.384;6.908;2023-04-24T05:49:04;10.10;99.90
23685;DHT22;12020;51.384;6.908;2023-04-24T05:51:31;10.10;99.90
23685;DHT22;12020;51.384;6.908;2023-04-24T05:53:57;10.10;99.90
23685;DHT22;12020;51.384;6.908;2023-04-24T05:56:23;10.10;99.90
23685;DHT22;12020;51.384;6.908;2023-04-24T05:58:50;10.10;99.90
23685;DHT22;12020;51.384;6.908;2023-04-24T06:01:15;10.10;99.90
23685;DHT22;12020;51.384;6.908;2023-04-24T06:03:42;10.10;99.90
23685;DHT22;12020;51.384;6.908;2023-04-24T06:06:08;10.10;99.90
23685;DHT22;12020;51.384;6.908;2023-04-24T06:08:34;10.00;99.90
23685;DHT22;12020;51.384;6.908;2023-04-24T06:11:00;10.10;99.90
23685;DHT22;12020;51.384;6.908;2023-04-24T06:13:26;10.00;99.90
23685;DHT22;12020;51.384;6.908;2023-04-24T06:15:53;10.10;99.90
23685;DHT22;12020;51.384;6.908;2023-04-24T06:18:20;10.10;99.90
23685;DHT22;12020;51.384;6.908;2023-04-24T06:20:46;10.10;99.90
23685;DHT22;12020;51.384;6.908;2023-04-24T06:23:12;10.10;99.90
23685;DHT22;12020;51.384;6.908;2023-04-24T06:25:38;10.10;99.90
23685;DHT22;12020;51.384;6.908;2023-04-24T06:28:05;10.10;99.90
23685;DHT22;12020;51.384;6.908;2023-04-24T06:30:31;10.10;99.90
23685;DHT22;12020;51.384;6.908;2023-04-24T06:32:56;10.00;99.90
23685;DHT22;12020;51.384;6.908;2023-04-24T06:35:22;10.10;99.90
23685;DHT22;12020;51.384;6.908;2023-04-24T06:37:51;10.10;99.90
23685;DHT22;12020;51.384;6.908;2023-04-24T06:40:17;10.00;99.90
23685;DHT22;12020;51.384;6.908;2023-04-24T06:42:44;10.00;99.90
23685;DHT22;12020;51.384;6.908;2023-04-24T06:45:10;10.00;99.90
23685;DHT22;12020;51.384;6.908;2023-04-24T06:47:36;10.00;99.90
23685;DHT22;12020;51.384;6.908;2023-04-24T06:50:03;10.00;99.90
23685;DHT22;12020;51.384;6.908;2023-04-24T06:52:29;10.00;99.90
23685;DHT22;12020;51.384;6.908;2023-04-24T06:55:04;9.90;99.90
23685;DHT22;12020;51.384;6.908;2023-04-24T06:57:30;9.90;99.90
23685;DHT22;12020;51.384;6.908;2023-04-24T06:59:57;9.80;99.90
23685;DHT22;12020;51.384;6.908;2023-04-24T07:02:23;9.80;99.90
23685;DHT22;12020;51.384;6.908;2023-04-24T07:04:50;9.80;99.90
23685;DHT22;12020;51.384;6.908;2023-04-24T07:07:16;9.80;99.90
23685;DHT22;12020;51.384;6.908;2023-04-24T07:09:43;9.80;99.90
23685;DHT22;12020;51.384;6.908;2023-04-24T07:12:11;9.80;99.90
23685;DHT22;12020;51.384;6.908;2023-04-24T07:14:38;9.80;99.90
23685;DHT22;12020;51.384;6.908;2023-04-24T07:17:07;9.80;99.90
23685;DHT22;12020;51.384;6.908;2023-04-24T07:19:33;9.80;99.90
23685;DHT22;12020;51.384;6.908;2023-04-24T07:22:00;9.80;99.90
23685;DHT22;12020;51.384;6.908;2023-04-24T07:24:26;9.80;99.90
23685;DHT22;12020;51.384;6.908;2023-04-24T07:26:53;9.80;99.90
23685;DHT22;12020;51.384;6.908;2023-04-24T07:29:20;9.80;99.90
23685;DHT22;12020;51.384;6.908;2023-04-24T07:31:46;9.80;99.90
23685;DHT22;12020;51.384;6.908;2023-04-24T07:34:12;9.80;99.90
23685;DHT22;12020;51.384;6.908;2023-04-24T07:36:38;9.90;99.90
23685;DHT22;12020;51.384;6.908;2023-04-24T07:39:04;9.90;99.90
23685;DHT22;12020;51.384;6.908;2023-04-24T07:41:31;9.90;99.90
23685;DHT22;12020;51.384;6.908;2023-04-24T07:43:57;9.80;99.90
23685;DHT22;12020;51.384;6.908;2023-04-24T07:46:24;9.80;99.90
23685;DHT22;12020;51.384;6.908;2023-04-24T07:48:50;9.70;99.90
23685;DHT22;12020;51.384;6.908;2023-04-24T07:51:17;9.70;99.90
23685;DHT22;12020;51.384;6.908;2023-04-24T07:53:51;9.70;99.90
23685;DHT22;12020;51.384;6.908;2023-04-24T07:56:17;9.70;99.90
23685;DHT22;12020;51.384;6.908;2023-04-24T07:58:43;9.70;99.90
23685;DHT22;12020;51.384;6.908;2023-04-24T08:01:09;9.70;99.90
23685;DHT22;12020;51.384;6.908;2023-04-24T08:03:36;9.70;99.90
23685;DHT22;12020;51.384;6.908;2023-04-24T08:06:01;9.70;99.90
23685;DHT22;12020;51.384;6.908;2023-04-24T08:08:28;9.60;99.90
23685;DHT22;12020;51.384;6.908;2023-04-24T08:10:54;9.60;99.90
23685;DHT22;12020;51.384;6.908;2023-04-24T08:13:26;9.50;99.90
23685;DHT22;12020;51.384;6.908;2023-04-24T08:15:52;9.40;99.90
23685;DHT22;12020;51.384;6.908;2023-04-24T08:18:18;9.40;99.90
23685;DHT22;12020;51.384;6.908;2023-04-24T08:20:43;9.40;99.90
23685;DHT22;12020;51.384;6.908;2023-04-24T08:23:15;9.30;99.90
23685;DHT22;12020;51.384;6.908;2023-04-24T08:25:40;9.30;99.90
23685;DHT22;12020;51.384;6.908;2023-04-24T08:28:08;9.30;99.90
23685;DHT22;12020;51.384;6.908;2023-04-24T08:30:36;9.30;99.90
23685;DHT22;12020;51.384;6.908;2023-04-24T08:33:02;9.30;99.90
23685;DHT22;12020;51.384;6.908;2023-04-24T08:35:28;9.30;99.90
23685;DHT22;12020;51.384;6.908;2023-04-24T08:37:54;9.30;99.90
23685;DHT22;12020;51.384;6.908;2023-04-24T08:40:26;9.30;99.90
23685;DHT22;12020;51.384;6.908;2023-04-24T08:42:54;9.30;99.90
23685;DHT22;12020;51.384;6.908;2023-04-24T08:45:22;9.20;99.90
23685;DHT22;12020;51.384;6.908;2023-04-24T08:47:48;9.30;99.90
23685;DHT22;12020;51.384;6.908;2023-04-24T08:50:15;9.30;99.90
23685;DHT22;12020;51.384;6.908;2023-04-24T08:52:42;9.30;99.90
23685;DHT22;12020;51.384;6.908;2023-04-24T08:55:08;9.40;99.90
23685;DHT22;12020;51.384;6.908;2023-04-24T08:57:35;9.40;99.90
23685;DHT22;12020;51.384;6.908;2023-04-24T09:00:04;9.50;99.90
23685;DHT22;12020;51.384;6.908;2023-04-24T09:02:31;9.50;99.90
23685;DHT22;12020;51.384;6.908;2023-04-24T09:05:00;9.60;99.90
23685;DHT22;12020;51.384;6.908;2023-04-24T09:07:27;9.60;99.90
23685;DHT22;12020;51.384;6.908;2023-04-24T09:09:55;9.60;99.90
23685;DHT22;12020;51.384;6.908;2023-04-24T09:12:22;9.70;99.90
23685;DHT22;12020;51.384;6.908;2023-04-24T09:14:48;9.70;99.90
23685;DHT22;12020;51.384;6.908;2023-04-24T09:17:15;9.70;99.90
23685;DHT22;12020;51.384;6.908;2023-04-24T09:19:41;9.70;99.90
23685;DHT22;12020;51.384;6.908;2023-04-24T09:22:09;9.70;99.90
23685;DHT22;12020;51.384;6.908;2023-04-24T09:24:36;9.60;99.90
23685;DHT22;12020;51.384;6.908;2023-04-24T09:27:02;9.60;99.90
23685;DHT22;12020;51.384;6.908;2023-04-24T09:29:29;9.50;99.90
23685;DHT22;12020;51.384;6.908;2023-04-24T09:31:55;9.50;99.90
23685;DHT22;12020;51.384;6.908;2023-04-24T09:34:26;9.50;99.90
23685;DHT22;12020;51.384;6.908;2023-04-24T09:36:52;9.40;99.90
23685;DHT22;12020;51.384;6.908;2023-04-24T09:39:19;9.40;99.90
23685;DHT22;12020;51.384;6.908;2023-04-24T09:44:16;9.40;99.90
23685;DHT22;12020;51.384;6.908;2023-04-24T09:46:42;9.40;99.90
23685;DHT22;12020;51.384;6.908;2023-04-24T09:49:12;9.30;99.90
23685;DHT22;12020;51.384;6.908;2023-04-24T09:51:39;9.30;99.90
23685;DHT22;12020;51.384;6.908;2023-04-24T09:54:17;9.30;99.90
23685;DHT22;12020;51.384;6.908;2023-04-24T09:56:46;9.30;99.90
23685;DHT22;12020;51.384;6.908;2023-04-24T09:59:18;9.30;99.90
23685;DHT22;12020;51.384;6.908;2023-04-24T10:01:44;9.30;99.90
23685;DHT22;12020;51.384;6.908;2023-04-24T10:06:48;9.30;99.90
23685;DHT22;12020;51.384;6.908;2023-04-24T10:09:16;9.30;99.90
23685;DHT22;12020;51.384;6.908;2023-04-24T10:11:43;9.30;99.90
23685;DHT22;12020;51.384;6.908;2023-04-24T10:14:18;9.40;99.90
23685;DHT22;12020;51.384;6.908;2023-04-24T10:16:45;9.40;99.90
23685;DHT22;12020;51.384;6.908;2023-04-24T10:19:22;9.40;99.90
23685;DHT22;12020;51.384;6.908;2023-04-24T10:21:50;9.40;99.90
23685;DHT22;12020;51.384;6.908;2023-04-24T10:24:18;9.50;99.90
23685;DHT22;12020;51.384;6.908;2023-04-24T10:26:47;9.50;99.90
23685;DHT22;12020;51.384;6.908;2023-04-24T10:29:17;9.60;99.90
23685;DHT22;12020;51.384;6.908;2023-04-24T10:31:44;9.70;99.90
23685;DHT22;12020;51.384;6.908;2023-04-24T10:34:14;9.70;99.90
23685;DHT22;12020;51.384;6.908;2023-04-24T10:36:45;9.70;99.90
23685;DHT22;12020;51.384;6.908;2023-04-24T10:39:13;9.70;99.90
23685;DHT22;12020;51.384;6.908;2023-04-24T10:41:43;9.80;99.90
23685;DHT22;12020;51.384;6.908;2023-04-24T10:44:16;9.80;99.90
23685;DHT22;12020;51.384;6.908;2023-04-24T10:46:46;9.80;99.90
23685;DHT22;12020;51.384;6.908;2023-04-24T10:49:15;9.80;99.90
23685;DHT22;12020;51.384;6.908;2023-04-24T10:51:53;9.80;99.90
23685;DHT22;12020;51.384;6.908;2023-04-24T10:56:52;9.80;99.90
23685;DHT22;12020;51.384;6.908;2023-04-24T10:59:29;9.80;99.90
23685;DHT22;12020;51.384;6.908;2023-04-24T11:02:00;9.90;99.90
23685;DHT22;12020;51.384;6.908;2023-04-24T11:04:30;9.90;99.90
23685;DHT22;12020;51.384;6.908;2023-04-24T11:06:57;9.90;99.90
23685;DHT22;12020;51.384;6.908;2023-04-24T11:09:27;9.90;99.90
23685;DHT22;12020;51.384;6.908;2023-04-24T11:12:05;10.00;99.90
23685;DHT22;12020;51.384;6.908;2023-04-24T11:15:02;10.10;99.90
23685;DHT22;12020;51.384;6.908;2023-04-24T11:17:31;10.20;99.90
23685;DHT22;12020;51.384;6.908;2023-04-24T11:20:07;10.20;99.90
23685;DHT22;12020;51.384;6.908;2023-04-24T11:22:36;10.20;99.90
23685;DHT22;12020;51.384;6.908;2023-04-24T11:25:03;10.20;99.90
23685;DHT22;12020;51.384;6.908;2023-04-24T11:27:31;10.20;99.90
23685;DHT22;12020;51.384;6.908;2023-04-24T11:32:34;10.20;99.90
23685;DHT22;12020;51.384;6.908;2023-04-24T11:35:13;10.20;99.90
23685;DHT22;12020;51.384;6.908;2023-04-24T11:37:42;10.20;99.90
23685;DHT22;12020;51.384;6.908;2023-04-24T11:40:10;10.30;99.90
23685;DHT22;12020;51.384;6.908;2023-04-24T11:42:38;10.30;99.90
23685;DHT22;12020;51.384;6.908;2023-04-24T11:45:08;10.30;99.90
23685;DHT22;12020;51.384;6.908;2023-04-24T11:47:35;10.30;99.90
23685;DHT22;12020;51.384;6.908;2023-04-24T11:50:02;10.30;99.90
23685;DHT22;12020;51.384;6.908;2023-04-24T11:52:29;10.30;99.90
23685;DHT22;12020;51.384;6.908;2023-04-24T11:54:55;10.30;99.90
23685;DHT22;12020;51.384;6.908;2023-04-24T11:57:22;10.40;99.90
23685;DHT22;12020;51.384;6.908;2023-04-24T11:59:49;10.50;99.90
23685;DHT22;12020;51.384;6.908;2023-04-24T12:02:26;10.50;99.90
23685;DHT22;12020;51.384;6.908;2023-04-24T12:04:53;10.70;99.90
23685;DHT22;12020;51.384;6.908;2023-04-24T12:07:20;10.80;99.90
23685;DHT22;12020;51.384;6.908;2023-04-24T12:09:58;10.90;99.90
23685;DHT22;12020;51.384;6.908;2023-04-24T12:12:25;10.90;99.90
23685;DHT22;12020;51.384;6.908;2023-04-24T12:14:58;10.80;99.90
23685;DHT22;12020;51.384;6.908;2023-04-24T12:17:30;10.70;99.90
23685;DHT22;12020;51.384;6.908;2023-04-24T12:20:01;10.60;99.90
23685;DHT22;12020;51.384;6.908;2023-04-24T12:22:44;10.60;99.90
23685;DHT22;12020;51.384;6.908;2023-04-24T12:25:18;10.50;99.90
23685;DHT22;12020;51.384;6.908;2023-04-24T12:27:45;10.50;99.90
23685;DHT22;12020;51.384;6.908;2023-04-24T12:30:15;10.50;99.90
23685;DHT22;12020;51.384;6.908;2023-04-24T12:32:43;10.50;99.90
23685;DHT22;12020;51.384;6.908;2023-04-24T12:35:09;10.50;99.90
23685;DHT22;12020;51.384;6.908;2023-04-24T12:37:34;10.40;99.90
23685;DHT22;12020;51.384;6.908;2023-04-24T12:40:12;10.40;99.90
23685;DHT22;12020;51.384;6.908;2023-04-24T12:42:56;10.40;99.90
23685;DHT22;12020;51.384;6.908;2023-04-24T12:45:22;10.50;99.90
23685;DHT22;12020;51.384;6.908;2023-04-24T12:47:51;10.50;99.90
23685;DHT22;12020;51.384;6.908;2023-04-24T12:50:16;10.60;99.90
23685;DHT22;12020;51.384;6.908;2023-04-24T12:52:43;10.60;99.90
23685;DHT22;12020;51.384;6.908;2023-04-24T12:55:10;10.70;99.90
23685;DHT22;12020;51.384;6.908;2023-04-24T12:57:38;10.80;99.90
23685;DHT22;12020;51.384;6.908;2023-04-24T13:00:06;10.80;99.90
23685;DHT22;12020;51.384;6.908;2023-04-24T13:02:33;10.80;99.90
23685;DHT22;12020;51.384;6.908;2023-04-24T13:05:00;10.80;99.90
23685;DHT22;12020;51.384;6.908;2023-04-24T13:07:26;10.80;99.90
23685;DHT22;12020;51.384;6.908;2023-04-24T13:09:54;10.90;99.90
23685;DHT22;12020;51.384;6.908;2023-04-24T13:12:20;10.80;99.90
23685;DHT22;12020;51.384;6.908;2023-04-24T13:14:47;10.80;99.90
23685;DHT22;12020;51.384;6.908;2023-04-24T13:17:14;10.80;99.90
23685;DHT22;12020;51.384;6.908;2023-04-24T13:19:41;10.80;99.90
23685;DHT22;12020;51.384;6.908;2023-04-24T13:22:08;10.80;99.90
23685;DHT22;12020;51.384;6.908;2023-04-24T13:24:34;10.70;99.90
23685;DHT22;12020;51.384;6.908;2023-04-24T13:27:00;10.60;99.90
23685;DHT22;12020;51.384;6.908;2023-04-24T13:29:26;10.60;99.90
23685;DHT22;12020;51.384;6.908;2023-04-24T13:31:53;10.60;99.90
23685;DHT22;12020;51.384;6.908;2023-04-24T13:34:26;10.60;99.90
23685;DHT22;12020;51.384;6.908;2023-04-24T13:36:53;10.50;99.90
23685;DHT22;12020;51.384;6.908;2023-04-24T13:39:20;10.50;99.90
23685;DHT22;12020;51.384;6.908;2023-04-24T13:41:47;10.50;99.90
23685;DHT22;12020;51.384;6.908;2023-04-24T13:44:14;10.50;99.90
23685;DHT22;12020;51.384;6.908;2023-04-24T13:46:41;10.50;99.90
23685;DHT22;12020;51.384;6.908;2023-04-24T13:49:07;10.60;99.90
23685;DHT22;12020;51.384;6.908;2023-04-24T13:51:33;10.70;99.90
23685;DHT22;12020;51.384;6.908;2023-04-24T13:53:59;10.80;99.90
23685;DHT22;12020;51.384;6.908;2023-04-24T13:56:26;10.80;99.90
23685;DHT22;12020;51.384;6.908;2023-04-24T13:58:52;10.80;99.90
23685;DHT22;12020;51.384;6.908;2023-04-24T14:01:20;10.80;99.90
23685;DHT22;12020;51.384;6.908;2023-04-24T14:03:50;10.80;99.90
23685;DHT22;12020;51.384;6.908;2023-04-24T14:06:18;10.80;99.90
23685;DHT22;12020;51.384;6.908;2023-04-24T14:08:43;10.90;99.90
23685;DHT22;12020;51.384;6.908;2023-04-24T14:11:09;10.90;99.90
23685;DHT22;12020;51.384;6.908;2023-04-24T14:13:36;11.00;99.90
23685;DHT22;12020;51.384;6.908;2023-04-24T14:16:03;11.10;99.90
23685;DHT22;12020;51.384;6.908;2023-04-24T14:18:29;11.20;99.90
23685;DHT22;12020;51.384;6.908;2023-04-24T14:20:55;11.30;99.90
23685;DHT22;12020;51.384;6.908;2023-04-24T14:23:22;11.30;99.90
23685;DHT22;12020;51.384;6.908;2023-04-24T14:25:49;11.40;99.90
23685;DHT22;12020;51.384;6.908;2023-04-24T14:28:18;11.40;99.90
23685;DHT22;12020;51.384;6.908;2023-04-24T14:30:44;11.40;99.90
23685;DHT22;12020;51.384;6.908;2023-04-24T14:33:12;11.40;99.90
23685;DHT22;12020;51.384;6.908;2023-04-24T14:35:39;11.40;99.90
23685;DHT22;12020;51.384;6.908;2023-04-24T14:38:05;11.40;99.90
23685;DHT22;12020;51.384;6.908;2023-04-24T14:40:32;11.40;99.90
23685;DHT22;12020;51.384;6.908;2023-04-24T14:42:59;11.40;99.90
23685;DHT22;12020;51.384;6.908;2023-04-24T14:45:25;11.40;99.90
23685;DHT22;12020;51.384;6.908;2023-04-24T14:47:53;11.40;99.90
23685;DHT22;12020;51.384;6.908;2023-04-24T14:50:22;11.30;99.90
23685;DHT22;12020;51.384;6.908;2023-04-24T14:52:49;11.30;99.90
23685;DHT22;12020;51.384;6.908;2023-04-24T14:55:15;11.20;99.90
23685;DHT22;12020;51.384;6.908;2023-04-24T14:57:41;11.10;99.90
23685;DHT22;12020;51.384;6.908;2023-04-24T15:00:08;11.10;99.90
23685;DHT22;12020;51.384;6.908;2023-04-24T15:02:36;11.00;99.90
23685;DHT22;12020;51.384;6.908;2023-04-24T15:05:06;11.00;99.90
23685;DHT22;12020;51.384;6.908;2023-04-24T15:07:31;11.00;99.90
23685;DHT22;12020;51.384;6.908;2023-04-24T15:09:58;10.90;99.90
23685;DHT22;12020;51.384;6.908;2023-04-24T15:12:25;10.90;99.90
23685;DHT22;12020;51.384;6.908;2023-04-24T15:14:52;11.00;99.90
23685;DHT22;12020;51.384;6.908;2023-04-24T15:17:18;11.00;99.90
23685;DHT22;12020;51.384;6.908;2023-04-24T15:19:44;11.00;99.90
23685;DHT22;12020;51.384;6.908;2023-04-24T15:22:10;11.00;99.90
23685;DHT22;12020;51.384;6.908;2023-04-24T15:24:36;11.00;99.90
23685;DHT22;12020;51.384;6.908;2023-04-24T15:27:02;11.10;99.90
23685;DHT22;12020;51.384;6.908;2023-04-24T15:29:29;11.20;99.90
23685;DHT22;12020;51.384;6.908;2023-04-24T15:31:54;11.20;99.90
23685;DHT22;12020;51.384;6.908;2023-04-24T15:34:21;11.20;99.90
23685;DHT22;12020;51.384;6.908;2023-04-24T15:36:47;11.30;99.90
23685;DHT22;12020;51.384;6.908;2023-04-24T15:39:13;11.20;99.90
23685;DHT22;12020;51.384;6.908;2023-04-24T15:41:39;11.30;99.90
23685;DHT22;12020;51.384;6.908;2023-04-24T15:44:06;11.30;99.90
23685;DHT22;12020;51.384;6.908;2023-04-24T15:46:34;11.40;99.90